首页
METAR-TAF:

METAR-TAF

机场 :

Goose Bay, 紐芬蘭-拉布拉多, 加拿大

纬度: 53-19N, 经度: 060-25W, 海拔: 46米

当前天气观测

该预报发布于47分钟前的00:00 UTC
风速5节,风向东转东北
温度 10°C
湿度 100%
气压 1009 hPa
能見度: 24.1公里
多云层高于400英尺
多云层高于3000英尺
多云层高于10000英尺
小阵雨

METAR: CYYR 210000Z 07005KT 15SM -SHRA BKN004 BKN030 BKN100 10/10 A2980 RMK SF5SC2AC1 DENSITY ALT -135FT CIG EST VIS LWR E-SW SLP092

时间: 21:47 (00:47 UTC)

预报

该预报发布于11分钟前的00:36 UTC
预报有效从21日的 00点(UTC)到 22日的 06点(UTC)
风速5节,风向东转东北
能見度: 10公里
散云层高于400英尺
多云层高于3000英尺
多云层高于6000英尺
短暂存在
从 21日的 00点(UTC)到 21日的 07点(UTC)
能見度: 6.4公里
多云层高于400英尺
阴天层高于3000英尺
小阵雨, 轻雾
从 21日的 0700点(UTC)
风速5节,风向东北
能見度: 6.4公里
多云层高于500英尺
阴天层高于1000英尺
轻雾
几率 30%
从 21日的 07点(UTC)到 21日的 13点(UTC)
能見度: 1.6公里
多云层高于300英尺
轻雾
从 21日的 1500点(UTC)
风速8节,风向北转东北
能見度: 8.0公里
少量云层高于500英尺
阴天层高于1000英尺
小雨, 轻雾
从 21日的 2000点(UTC)
风速12节,风向北转东北
能見度: 10公里
少量云层高于800英尺
阴天层高于1500英尺
短暂存在
从 22日的 00点(UTC)到 22日的 06点(UTC)
能見度: 6.4公里
阴天层高于800英尺
小毛毛雨, 轻雾

TAF: CYYR 210036Z 2100/2206 06005KT P6SM SCT004 BKN030 BKN060 TEMPO 2100/2107 4SM -SHRA BR BKN004 OVC030 FM210700 05005KT 4SM BR BKN005 OVC010 PROB30 2107/2113 1SM BR BKN003 FM211500 03008KT 5SM -RA BR FEW005 OVC010 FM212000 03012KT P6SM FEW008 OVC015 TEMPO 2200/2206 4SM -DZ BR OVC008 RMK NXT FCST BY 210600Z

超过4000个机场的气象观测和天气预报(METAR&TAF报告)。

可查询的气象台以黄色和红色小点在地图上表示。

将鼠标移到小点上方,可查看气象台名称。

然后点击查看天气观测和预报。

如需切换地图:点击带黑十字的绿色按钮放大地图;点击带横线的绿色按钮缩小地图;或者点击绿色箭头查看邻近地区的地图。


METAR-TAF: